sensor_id;sensor_type;location;lat;lon;timestamp;pressure;altitude;pressure_sealevel;temperature;humidity
62592;BME280;48659;41.622;2.276;2023-04-30T00:00:49;99642.11;;;15.53;68.92
62592;BME280;48659;41.622;2.276;2023-04-30T00:03:17;99644.46;;;14.98;70.29
62592;BME280;48659;41.622;2.276;2023-04-30T00:05:49;99635.48;;;14.76;71.36
62592;BME280;48659;41.622;2.276;2023-04-30T00:08:17;99620.43;;;16.41;65.89
62592;BME280;48659;41.622;2.276;2023-04-30T00:10:44;99603.16;;;15.64;68.95
62592;BME280;48659;41.622;2.276;2023-04-30T00:13:12;99602.18;;;15.78;71.13
62592;BME280;48659;41.622;2.276;2023-04-30T00:15:48;99614.36;;;15.73;69.84
62592;BME280;48659;41.622;2.276;2023-04-30T00:18:15;99623.79;;;15.03;71.57
62592;BME280;48659;41.622;2.276;2023-04-30T00:20:47;99640.25;;;15.00;71.90
62592;BME280;48659;41.622;2.276;2023-04-30T00:23:15;99656.39;;;14.66;73.27
62592;BME280;48659;41.622;2.276;2023-04-30T00:25:43;99659.09;;;14.94;72.74
62592;BME280;48659;41.622;2.276;2023-04-30T00:28:10;99654.38;;;15.16;75.69
62592;BME280;48659;41.622;2.276;2023-04-30T00:30:37;99649.80;;;15.93;71.04
62592;BME280;48659;41.622;2.276;2023-04-30T00:33:04;99651.13;;;15.50;70.47
62592;BME280;48659;41.622;2.276;2023-04-30T00:35:31;99651.11;;;15.45;71.62
62592;BME280;48659;41.622;2.276;2023-04-30T00:37:58;99641.73;;;16.32;68.24
62592;BME280;48659;41.622;2.276;2023-04-30T00:40:25;99641.44;;;16.32;66.59
62592;BME280;48659;41.622;2.276;2023-04-30T00:42:53;99635.22;;;15.74;68.41
62592;BME280;48659;41.622;2.276;2023-04-30T00:45:20;99631.73;;;14.88;70.45
62592;BME280;48659;41.622;2.276;2023-04-30T00:47:48;99634.98;;;14.46;73.39
62592;BME280;48659;41.622;2.276;2023-04-30T00:50:15;99624.45;;;16.09;69.22
62592;BME280;48659;41.622;2.276;2023-04-30T00:52:48;99620.44;;;16.30;67.28
62592;BME280;48659;41.622;2.276;2023-04-30T00:55:16;99618.46;;;17.30;63.92
62592;BME280;48659;41.622;2.276;2023-04-30T00:57:43;99619.54;;;15.42;69.85
62592;BME280;48659;41.622;2.276;2023-04-30T01:00:11;99621.93;;;16.65;66.91
62592;BME280;48659;41.622;2.276;2023-04-30T01:02:39;99619.71;;;17.83;63.73
62592;BME280;48659;41.622;2.276;2023-04-30T01:05:08;99618.68;;;16.33;66.89
62592;BME280;48659;41.622;2.276;2023-04-30T01:07:37;99607.26;;;18.11;61.91
62592;BME280;48659;41.622;2.276;2023-04-30T01:10:07;99599.99;;;18.78;59.34
62592;BME280;48659;41.622;2.276;2023-04-30T01:12:38;99592.12;;;19.84;56.74
62592;BME280;48659;41.622;2.276;2023-04-30T01:15:20;99594.05;;;19.42;56.31
62592;BME280;48659;41.622;2.276;2023-04-30T01:17:54;99597.76;;;18.93;57.87
62592;BME280;48659;41.622;2.276;2023-04-30T01:20:23;99592.59;;;19.45;57.55
62592;BME280;48659;41.622;2.276;2023-04-30T01:22:56;99590.57;;;18.46;57.27
62592;BME280;48659;41.622;2.276;2023-04-30T01:25:43;99585.59;;;19.08;57.36
62592;BME280;48659;41.622;2.276;2023-04-30T01:28:18;99576.78;;;19.29;57.37
62592;BME280;48659;41.622;2.276;2023-04-30T01:30:46;99575.45;;;18.76;57.46
62592;BME280;48659;41.622;2.276;2023-04-30T01:33:14;99570.61;;;18.23;58.35
62592;BME280;48659;41.622;2.276;2023-04-30T01:36:03;99568.13;;;17.87;58.93
62592;BME280;48659;41.622;2.276;2023-04-30T01:38:48;99560.87;;;19.09;56.43
62592;BME280;48659;41.622;2.276;2023-04-30T01:41:25;99550.75;;;19.06;54.93
62592;BME280;48659;41.622;2.276;2023-04-30T01:44:07;99547.47;;;19.24;57.13
62592;BME280;48659;41.622;2.276;2023-04-30T01:46:40;99547.63;;;19.03;57.62
62592;BME280;48659;41.622;2.276;2023-04-30T01:49:21;99549.17;;;17.96;59.78
62592;BME280;48659;41.622;2.276;2023-04-30T01:51:55;99553.77;;;17.59;60.85
62592;BME280;48659;41.622;2.276;2023-04-30T01:54:28;99554.70;;;18.26;59.26
62592;BME280;48659;41.622;2.276;2023-04-30T01:57:01;99554.34;;;18.20;58.80
62592;BME280;48659;41.622;2.276;2023-04-30T01:59:31;99552.43;;;19.00;58.46
62592;BME280;48659;41.622;2.276;2023-04-30T02:01:59;99547.49;;;17.59;60.90
62592;BME280;48659;41.622;2.276;2023-04-30T02:08:35;99545.78;;;18.84;57.24
62592;BME280;48659;41.622;2.276;2023-04-30T02:11:03;99543.16;;;18.97;55.59
62592;BME280;48659;41.622;2.276;2023-04-30T02:13:31;99543.00;;;19.00;56.32
62592;BME280;48659;41.622;2.276;2023-04-30T02:16:00;99544.46;;;18.69;56.27
62592;BME280;48659;41.622;2.276;2023-04-30T02:18:27;99546.54;;;18.77;57.07
62592;BME280;48659;41.622;2.276;2023-04-30T02:20:54;99547.24;;;19.12;54.11
62592;BME280;48659;41.622;2.276;2023-04-30T02:23:22;99543.98;;;19.34;54.09
62592;BME280;48659;41.622;2.276;2023-04-30T02:25:50;99538.11;;;18.58;55.76
62592;BME280;48659;41.622;2.276;2023-04-30T02:28:18;99537.91;;;17.05;60.34
62592;BME280;48659;41.622;2.276;2023-04-30T02:30:45;99539.07;;;16.89;61.60
62592;BME280;48659;41.622;2.276;2023-04-30T02:33:12;99531.70;;;18.20;59.52
62592;BME280;48659;41.622;2.276;2023-04-30T02:35:49;99535.35;;;18.87;58.00
62592;BME280;48659;41.622;2.276;2023-04-30T02:38:16;99540.60;;;18.26;58.80
62592;BME280;48659;41.622;2.276;2023-04-30T02:40:49;99546.79;;;17.89;58.52
62592;BME280;48659;41.622;2.276;2023-04-30T02:43:16;99550.09;;;18.70;57.55
62592;BME280;48659;41.622;2.276;2023-04-30T02:45:48;99556.38;;;18.42;57.48
62592;BME280;48659;41.622;2.276;2023-04-30T02:48:16;99557.09;;;19.36;55.41
62592;BME280;48659;41.622;2.276;2023-04-30T02:50:43;99554.80;;;19.48;56.34
62592;BME280;48659;41.622;2.276;2023-04-30T02:53:11;99551.81;;;19.76;54.30
62592;BME280;48659;41.622;2.276;2023-04-30T02:55:38;99552.06;;;19.38;53.80
62592;BME280;48659;41.622;2.276;2023-04-30T02:58:05;99554.77;;;19.58;53.99
62592;BME280;48659;41.622;2.276;2023-04-30T03:00:32;99553.91;;;19.27;54.97
62592;BME280;48659;41.622;2.276;2023-04-30T03:03:00;99547.83;;;19.66;54.30
62592;BME280;48659;41.622;2.276;2023-04-30T03:05:28;99553.44;;;18.98;55.73
62592;BME280;48659;41.622;2.276;2023-04-30T03:07:56;99551.62;;;19.16;56.10
62592;BME280;48659;41.622;2.276;2023-04-30T03:10:23;99548.61;;;18.71;56.72
62592;BME280;48659;41.622;2.276;2023-04-30T03:12:50;99548.67;;;18.73;57.98
62592;BME280;48659;41.622;2.276;2023-04-30T03:15:18;99553.15;;;18.74;58.29
62592;BME280;48659;41.622;2.276;2023-04-30T03:17:49;99553.75;;;17.92;59.31
62592;BME280;48659;41.622;2.276;2023-04-30T03:20:17;99556.15;;;18.62;58.84
62592;BME280;48659;41.622;2.276;2023-04-30T03:22:44;99555.26;;;18.50;58.70
62592;BME280;48659;41.622;2.276;2023-04-30T03:25:11;99556.24;;;18.95;58.74
62592;BME280;48659;41.622;2.276;2023-04-30T03:27:39;99553.94;;;18.96;58.22
62592;BME280;48659;41.622;2.276;2023-04-30T03:30:08;99554.07;;;18.58;59.44
62592;BME280;48659;41.622;2.276;2023-04-30T03:32:35;99553.61;;;19.18;59.10
62592;BME280;48659;41.622;2.276;2023-04-30T03:35:03;99557.88;;;19.08;58.92
62592;BME280;48659;41.622;2.276;2023-04-30T03:37:30;99553.65;;;18.95;58.91
62592;BME280;48659;41.622;2.276;2023-04-30T03:39:57;99556.06;;;19.33;57.08
62592;BME280;48659;41.622;2.276;2023-04-30T03:42:24;99556.87;;;19.21;57.34
62592;BME280;48659;41.622;2.276;2023-04-30T03:44:52;99560.55;;;18.91;58.00
62592;BME280;48659;41.622;2.276;2023-04-30T03:47:19;99560.01;;;18.55;58.61
62592;BME280;48659;41.622;2.276;2023-04-30T03:49:47;99562.49;;;18.24;58.69
62592;BME280;48659;41.622;2.276;2023-04-30T03:52:14;99561.68;;;18.71;59.21
62592;BME280;48659;41.622;2.276;2023-04-30T03:54:42;99561.15;;;19.04;58.39
62592;BME280;48659;41.622;2.276;2023-04-30T03:57:09;99562.57;;;18.25;58.87
62592;BME280;48659;41.622;2.276;2023-04-30T03:59:37;99567.89;;;18.59;59.01
62592;BME280;48659;41.622;2.276;2023-04-30T04:02:04;99567.52;;;18.30;59.12
62592;BME280;48659;41.622;2.276;2023-04-30T04:04:32;99568.14;;;18.25;59.49
62592;BME280;48659;41.622;2.276;2023-04-30T04:07:00;99566.08;;;18.38;58.58
62592;BME280;48659;41.622;2.276;2023-04-30T04:09:28;99569.93;;;18.71;58.34
62592;BME280;48659;41.622;2.276;2023-04-30T04:11:55;99570.82;;;18.35;58.24
62592;BME280;48659;41.622;2.276;2023-04-30T04:14:23;99568.06;;;18.70;58.70
62592;BME280;48659;41.622;2.276;2023-04-30T04:16:50;99569.12;;;17.79;58.96
62592;BME280;48659;41.622;2.276;2023-04-30T04:19:17;99566.67;;;18.19;58.55
62592;BME280;48659;41.622;2.276;2023-04-30T04:21:44;99571.18;;;18.42;59.09
62592;BME280;48659;41.622;2.276;2023-04-30T04:24:11;99569.50;;;17.86;60.08
62592;BME280;48659;41.622;2.276;2023-04-30T04:26:39;99568.74;;;18.43;58.95
62592;BME280;48659;41.622;2.276;2023-04-30T04:29:07;99575.23;;;17.29;62.92
62592;BME280;48659;41.622;2.276;2023-04-30T04:31:34;99574.10;;;18.13;60.74
62592;BME280;48659;41.622;2.276;2023-04-30T04:34:03;99573.63;;;17.86;60.08
62592;BME280;48659;41.622;2.276;2023-04-30T04:36:31;99574.09;;;18.48;59.87
62592;BME280;48659;41.622;2.276;2023-04-30T04:38:59;99575.56;;;18.19;59.08
62592;BME280;48659;41.622;2.276;2023-04-30T04:41:27;99585.61;;;16.92;62.04
62592;BME280;48659;41.622;2.276;2023-04-30T04:43:55;99588.07;;;15.91;65.15
62592;BME280;48659;41.622;2.276;2023-04-30T04:46:23;99581.57;;;17.82;61.12
62592;BME280;48659;41.622;2.276;2023-04-30T04:48:51;99593.03;;;15.98;64.41
62592;BME280;48659;41.622;2.276;2023-04-30T04:51:19;99597.57;;;16.46;65.11
62592;BME280;48659;41.622;2.276;2023-04-30T04:53:46;99601.55;;;16.27;64.62
62592;BME280;48659;41.622;2.276;2023-04-30T04:56:14;99597.56;;;17.46;62.27
62592;BME280;48659;41.622;2.276;2023-04-30T04:58:43;99605.92;;;15.63;66.06
62592;BME280;48659;41.622;2.276;2023-04-30T05:01:10;99608.28;;;16.01;64.23
62592;BME280;48659;41.622;2.276;2023-04-30T05:03:38;99602.12;;;15.40;67.79
62592;BME280;48659;41.622;2.276;2023-04-30T05:06:06;99598.63;;;16.18;65.11
62592;BME280;48659;41.622;2.276;2023-04-30T05:08:33;99599.75;;;16.34;64.99
62592;BME280;48659;41.622;2.276;2023-04-30T05:11:01;99597.58;;;16.80;63.40
62592;BME280;48659;41.622;2.276;2023-04-30T05:13:28;99593.49;;;17.19;61.80
62592;BME280;48659;41.622;2.276;2023-04-30T05:15:55;99593.86;;;17.18;61.03
62592;BME280;48659;41.622;2.276;2023-04-30T05:18:23;99603.15;;;17.51;60.16
62592;BME280;48659;41.622;2.276;2023-04-30T05:20:51;99612.42;;;17.35;60.75
62592;BME280;48659;41.622;2.276;2023-04-30T05:23:18;99618.40;;;17.34;61.71
62592;BME280;48659;41.622;2.276;2023-04-30T05:25:50;99623.30;;;17.33;60.46
62592;BME280;48659;41.622;2.276;2023-04-30T05:28:18;99627.57;;;17.67;60.31
62592;BME280;48659;41.622;2.276;2023-04-30T05:30:46;99626.42;;;17.74;60.04
62592;BME280;48659;41.622;2.276;2023-04-30T05:33:15;99623.90;;;17.94;59.77
62592;BME280;48659;41.622;2.276;2023-04-30T05:35:43;99619.30;;;18.11;59.39
62592;BME280;48659;41.622;2.276;2023-04-30T05:38:10;99619.67;;;18.27;58.09
62592;BME280;48659;41.622;2.276;2023-04-30T05:40:39;99613.27;;;18.45;57.39
62592;BME280;48659;41.622;2.276;2023-04-30T05:43:07;99627.18;;;16.11;64.46
62592;BME280;48659;41.622;2.276;2023-04-30T05:45:34;99628.22;;;16.20;63.64
62592;BME280;48659;41.622;2.276;2023-04-30T05:48:03;99631.95;;;16.58;62.48
62592;BME280;48659;41.622;2.276;2023-04-30T05:50:30;99630.71;;;17.59;61.42
62592;BME280;48659;41.622;2.276;2023-04-30T05:52:57;99627.05;;;17.60;59.85
62592;BME280;48659;41.622;2.276;2023-04-30T05:55:25;99626.93;;;17.87;58.92
62592;BME280;48659;41.622;2.276;2023-04-30T05:57:52;99634.22;;;17.38;59.24
62592;BME280;48659;41.622;2.276;2023-04-30T06:00:19;99626.05;;;18.60;56.29
62592;BME280;48659;41.622;2.276;2023-04-30T06:02:50;99629.75;;;18.19;54.77
62592;BME280;48659;41.622;2.276;2023-04-30T06:05:18;99625.58;;;19.50;52.28
62592;BME280;48659;41.622;2.276;2023-04-30T06:07:49;99627.21;;;19.20;51.71
62592;BME280;48659;41.622;2.276;2023-04-30T06:10:17;99631.85;;;19.73;50.97
62592;BME280;48659;41.622;2.276;2023-04-30T06:12:44;99632.54;;;20.16;49.61
62592;BME280;48659;41.622;2.276;2023-04-30T06:15:11;99642.92;;;19.38;50.89
62592;BME280;48659;41.622;2.276;2023-04-30T06:17:38;99643.96;;;19.47;51.12
62592;BME280;48659;41.622;2.276;2023-04-30T06:20:07;99637.68;;;19.41;50.87
62592;BME280;48659;41.622;2.276;2023-04-30T06:22:35;99635.04;;;19.93;50.63
62592;BME280;48659;41.622;2.276;2023-04-30T06:25:04;99632.49;;;20.37;49.26
62592;BME280;48659;41.622;2.276;2023-04-30T06:27:32;99629.02;;;21.57;46.20
62592;BME280;48659;41.622;2.276;2023-04-30T06:29:58;99629.37;;;20.98;46.32
62592;BME280;48659;41.622;2.276;2023-04-30T06:32:27;99633.37;;;20.38;47.92
62592;BME280;48659;41.622;2.276;2023-04-30T06:34:55;99633.96;;;20.93;46.28
62592;BME280;48659;41.622;2.276;2023-04-30T06:37:23;99632.36;;;21.12;46.42
62592;BME280;48659;41.622;2.276;2023-04-30T06:39:51;99636.66;;;21.08;46.30
62592;BME280;48659;41.622;2.276;2023-04-30T06:42:18;99642.61;;;22.14;45.45
62592;BME280;48659;41.622;2.276;2023-04-30T06:44:45;99653.13;;;21.15;45.47
62592;BME280;48659;41.622;2.276;2023-04-30T06:47:12;99657.76;;;21.29;46.72
62592;BME280;48659;41.622;2.276;2023-04-30T06:49:50;99662.04;;;21.42;45.21
62592;BME280;48659;41.622;2.276;2023-04-30T06:52:17;99664.00;;;22.45;44.41
62592;BME280;48659;41.622;2.276;2023-04-30T06:54:44;99665.11;;;22.38;43.50
62592;BME280;48659;41.622;2.276;2023-04-30T06:57:13;99666.55;;;22.36;42.52
62592;BME280;48659;41.622;2.276;2023-04-30T06:59:50;99671.33;;;22.51;42.04
62592;BME280;48659;41.622;2.276;2023-04-30T07:02:18;99675.73;;;22.55;41.51
62592;BME280;48659;41.622;2.276;2023-04-30T07:04:45;99677.64;;;23.24;41.18
62592;BME280;48659;41.622;2.276;2023-04-30T07:07:13;99680.41;;;23.03;41.62
62592;BME280;48659;41.622;2.276;2023-04-30T07:09:48;99680.45;;;22.89;41.89
62592;BME280;48659;41.622;2.276;2023-04-30T07:12:16;99682.27;;;23.32;41.05
62592;BME280;48659;41.622;2.276;2023-04-30T07:14:43;99683.51;;;23.09;41.35
62592;BME280;48659;41.622;2.276;2023-04-30T07:17:11;99683.49;;;22.41;44.17
62592;BME280;48659;41.622;2.276;2023-04-30T07:19:39;99678.77;;;23.89;41.75
62592;BME280;48659;41.622;2.276;2023-04-30T07:22:06;99671.70;;;23.29;43.85
62592;BME280;48659;41.622;2.276;2023-04-30T07:24:34;99670.12;;;23.76;42.25
62592;BME280;48659;41.622;2.276;2023-04-30T07:27:02;99667.53;;;23.67;41.99
62592;BME280;48659;41.622;2.276;2023-04-30T07:29:30;99666.29;;;22.83;43.97
62592;BME280;48659;41.622;2.276;2023-04-30T07:31:58;99662.21;;;22.88;43.92
62592;BME280;48659;41.622;2.276;2023-04-30T07:34:25;99661.50;;;24.13;42.68
62592;BME280;48659;41.622;2.276;2023-04-30T07:36:53;99670.52;;;21.06;46.69
62592;BME280;48659;41.622;2.276;2023-04-30T07:39:20;99671.17;;;21.93;44.88
62592;BME280;48659;41.622;2.276;2023-04-30T07:41:49;99672.01;;;22.86;44.30
62592;BME280;48659;41.622;2.276;2023-04-30T07:44:16;99682.95;;;21.54;47.96
62592;BME280;48659;41.622;2.276;2023-04-30T07:46:44;99682.93;;;20.09;50.25
62592;BME280;48659;41.622;2.276;2023-04-30T07:49:12;99686.61;;;20.47;50.32
62592;BME280;48659;41.622;2.276;2023-04-30T07:51:41;99691.07;;;22.55;46.55
62592;BME280;48659;41.622;2.276;2023-04-30T07:54:08;99690.48;;;22.71;45.58
62592;BME280;48659;41.622;2.276;2023-04-30T07:56:36;99699.52;;;21.39;48.30
62592;BME280;48659;41.622;2.276;2023-04-30T07:59:03;99701.07;;;21.54;46.27
62592;BME280;48659;41.622;2.276;2023-04-30T08:01:31;99698.47;;;23.36;44.20
62592;BME280;48659;41.622;2.276;2023-04-30T08:03:58;99698.81;;;22.92;44.51
62592;BME280;48659;41.622;2.276;2023-04-30T08:06:26;99700.41;;;22.75;45.20
62592;BME280;48659;41.622;2.276;2023-04-30T08:08:53;99705.84;;;20.34;50.40
62592;BME280;48659;41.622;2.276;2023-04-30T08:11:21;99705.50;;;21.28;48.69
62592;BME280;48659;41.622;2.276;2023-04-30T08:13:50;99705.86;;;21.87;46.21
62592;BME280;48659;41.622;2.276;2023-04-30T08:16:18;99706.14;;;20.98;48.01
62592;BME280;48659;41.622;2.276;2023-04-30T08:18:49;99706.63;;;21.10;46.73
62592;BME280;48659;41.622;2.276;2023-04-30T08:21:16;99705.20;;;20.67;49.76
62592;BME280;48659;41.622;2.276;2023-04-30T08:23:50;99708.03;;;21.19;45.99
62592;BME280;48659;41.622;2.276;2023-04-30T08:26:17;99699.54;;;22.89;43.43
62592;BME280;48659;41.622;2.276;2023-04-30T08:28:49;99712.09;;;20.93;45.70
62592;BME280;48659;41.622;2.276;2023-04-30T08:31:17;99707.30;;;22.85;43.45
62592;BME280;48659;41.622;2.276;2023-04-30T08:33:44;99705.06;;;22.76;42.44
62592;BME280;48659;41.622;2.276;2023-04-30T08:36:12;99718.12;;;21.64;44.94
62592;BME280;48659;41.622;2.276;2023-04-30T08:38:40;99716.31;;;20.66;46.03
62592;BME280;48659;41.622;2.276;2023-04-30T08:41:10;99721.06;;;20.78;46.07
62592;BME280;48659;41.622;2.276;2023-04-30T08:43:39;99723.68;;;22.05;43.90
62592;BME280;48659;41.622;2.276;2023-04-30T08:46:07;99718.92;;;23.09;40.30
62592;BME280;48659;41.622;2.276;2023-04-30T08:48:34;99720.49;;;23.45;39.66
62592;BME280;48659;41.622;2.276;2023-04-30T08:51:03;99728.07;;;21.12;42.70
62592;BME280;48659;41.622;2.276;2023-04-30T08:53:33;99717.05;;;23.92;39.72
62592;BME280;48659;41.622;2.276;2023-04-30T08:56:02;99719.12;;;23.72;38.71
62592;BME280;48659;41.622;2.276;2023-04-30T08:58:30;99729.86;;;20.99;43.55
62592;BME280;48659;41.622;2.276;2023-04-30T09:00:57;99727.91;;;22.03;41.88
62592;BME280;48659;41.622;2.276;2023-04-30T09:03:25;99723.00;;;23.91;39.12
62592;BME280;48659;41.622;2.276;2023-04-30T09:05:54;99730.59;;;21.10;41.09
62592;BME280;48659;41.622;2.276;2023-04-30T09:08:51;99721.10;;;23.37;38.18
62592;BME280;48659;41.622;2.276;2023-04-30T09:11:21;99718.15;;;24.19;37.07
62592;BME280;48659;41.622;2.276;2023-04-30T09:13:50;99714.10;;;21.44;39.60
62592;BME280;48659;41.622;2.276;2023-04-30T09:16:19;99705.60;;;24.50;36.14
62592;BME280;48659;41.622;2.276;2023-04-30T09:18:46;99707.14;;;23.94;36.94
62592;BME280;48659;41.622;2.276;2023-04-30T09:21:14;99715.41;;;21.88;41.36
62592;BME280;48659;41.622;2.276;2023-04-30T09:23:54;99706.10;;;24.00;37.89
62592;BME280;48659;41.622;2.276;2023-04-30T09:26:30;99700.70;;;24.24;35.52
62592;BME280;48659;41.622;2.276;2023-04-30T09:28:58;99698.96;;;23.22;37.36
62592;BME280;48659;41.622;2.276;2023-04-30T09:31:26;99695.90;;;23.25;39.33
62592;BME280;48659;41.622;2.276;2023-04-30T09:33:53;99695.21;;;23.15;36.85
62592;BME280;48659;41.622;2.276;2023-04-30T09:36:21;99694.09;;;23.54;37.91
62592;BME280;48659;41.622;2.276;2023-04-30T09:38:49;99689.16;;;23.95;35.41
62592;BME280;48659;41.622;2.276;2023-04-30T09:41:21;99684.88;;;24.79;33.81
62592;BME280;48659;41.622;2.276;2023-04-30T09:43:49;99682.29;;;23.57;35.00
62592;BME280;48659;41.622;2.276;2023-04-30T09:46:18;99681.01;;;24.21;35.21
62592;BME280;48659;41.622;2.276;2023-04-30T09:48:46;99685.53;;;22.89;37.94
62592;BME280;48659;41.622;2.276;2023-04-30T09:51:14;99680.37;;;24.95;35.65
62592;BME280;48659;41.622;2.276;2023-04-30T09:53:50;99679.36;;;23.36;36.29
62592;BME280;48659;41.622;2.276;2023-04-30T09:56:20;99671.89;;;24.23;34.72
62592;BME280;48659;41.622;2.276;2023-04-30T09:58:50;99670.97;;;23.11;36.18
62592;BME280;48659;41.622;2.276;2023-04-30T10:01:19;99669.99;;;23.49;34.97
62592;BME280;48659;41.622;2.276;2023-04-30T10:03:49;99668.09;;;23.96;34.63
62592;BME280;48659;41.622;2.276;2023-04-30T10:06:18;99670.62;;;24.47;34.28
62592;BME280;48659;41.622;2.276;2023-04-30T10:08:48;99672.86;;;24.54;33.66
62592;BME280;48659;41.622;2.276;2023-04-30T10:11:19;99669.22;;;25.25;32.87
62592;BME280;48659;41.622;2.276;2023-04-30T10:13:53;99672.17;;;24.54;33.84
62592;BME280;48659;41.622;2.276;2023-04-30T10:16:28;99671.18;;;23.19;36.32
62592;BME280;48659;41.622;2.276;2023-04-30T10:18:58;99665.38;;;22.15;36.79
62592;BME280;48659;41.622;2.276;2023-04-30T10:21:26;99668.45;;;23.45;37.04
62592;BME280;48659;41.622;2.276;2023-04-30T10:23:54;99669.48;;;23.17;35.71
62592;BME280;48659;41.622;2.276;2023-04-30T10:26:22;99664.11;;;23.95;34.92
62592;BME280;48659;41.622;2.276;2023-04-30T10:28:51;99664.36;;;24.40;33.62
62592;BME280;48659;41.622;2.276;2023-04-30T10:31:19;99660.66;;;24.69;34.26
62592;BME280;48659;41.622;2.276;2023-04-30T10:33:58;99658.83;;;25.59;32.79
62592;BME280;48659;41.622;2.276;2023-04-30T10:36:38;99656.16;;;23.21;35.43
62592;BME280;48659;41.622;2.276;2023-04-30T10:39:07;99651.66;;;23.88;34.80
62592;BME280;48659;41.622;2.276;2023-04-30T10:41:35;99650.94;;;23.86;34.46
62592;BME280;48659;41.622;2.276;2023-04-30T10:44:03;99645.55;;;23.77;34.61
62592;BME280;48659;41.622;2.276;2023-04-30T10:46:30;99642.75;;;25.49;33.78
62592;BME280;48659;41.622;2.276;2023-04-30T10:49:01;99645.73;;;25.96;32.52
62592;BME280;48659;41.622;2.276;2023-04-30T10:51:50;99642.93;;;25.60;32.44
62592;BME280;48659;41.622;2.276;2023-04-30T10:54:24;99636.45;;;24.67;33.42
62592;BME280;48659;41.622;2.276;2023-04-30T10:56:53;99628.54;;;26.23;31.72
62592;BME280;48659;41.622;2.276;2023-04-30T10:59:20;99620.75;;;26.66;31.32
62592;BME280;48659;41.622;2.276;2023-04-30T11:01:58;99625.23;;;24.82;32.35
62592;BME280;48659;41.622;2.276;2023-04-30T11:04:26;99629.35;;;24.86;32.89
62592;BME280;48659;41.622;2.276;2023-04-30T11:07:00;99622.69;;;24.97;33.11
62592;BME280;48659;41.622;2.276;2023-04-30T11:10:02;99619.41;;;24.13;35.11
62592;BME280;48659;41.622;2.276;2023-04-30T11:12:29;99614.29;;;23.44;37.17
62592;BME280;48659;41.622;2.276;2023-04-30T11:15:00;99618.86;;;23.58;37.13
62592;BME280;48659;41.622;2.276;2023-04-30T11:17:28;99609.45;;;22.09;40.06
62592;BME280;48659;41.622;2.276;2023-04-30T11:19:59;99609.05;;;22.88;39.37
62592;BME280;48659;41.622;2.276;2023-04-30T11:22:27;99609.90;;;24.12;37.00
62592;BME280;48659;41.622;2.276;2023-04-30T11:25:05;99607.35;;;23.50;37.38
62592;BME280;48659;41.622;2.276;2023-04-30T11:27:34;99609.02;;;22.63;39.18
62592;BME280;48659;41.622;2.276;2023-04-30T11:30:05;99606.90;;;22.98;38.52
62592;BME280;48659;41.622;2.276;2023-04-30T11:32:37;99600.63;;;22.76;39.35
62592;BME280;48659;41.622;2.276;2023-04-30T11:35:06;99602.47;;;22.93;38.94
62592;BME280;48659;41.622;2.276;2023-04-30T11:37:35;99599.57;;;24.18;37.13
62592;BME280;48659;41.622;2.276;2023-04-30T11:40:04;99608.65;;;23.13;38.58
62592;BME280;48659;41.622;2.276;2023-04-30T11:42:32;99601.38;;;23.02;39.40
62592;BME280;48659;41.622;2.276;2023-04-30T11:45:05;99603.60;;;23.45;40.02
62592;BME280;48659;41.622;2.276;2023-04-30T11:47:50;99604.30;;;23.07;42.08
62592;BME280;48659;41.622;2.276;2023-04-30T11:50:19;99604.38;;;23.98;42.37
62592;BME280;48659;41.622;2.276;2023-04-30T11:52:49;99607.84;;;21.50;45.00
62592;BME280;48659;41.622;2.276;2023-04-30T11:55:19;99611.16;;;23.34;43.27
62592;BME280;48659;41.622;2.276;2023-04-30T11:57:50;99616.27;;;23.31;44.50
62592;BME280;48659;41.622;2.276;2023-04-30T12:00:20;99620.02;;;23.51;44.61
62592;BME280;48659;41.622;2.276;2023-04-30T12:02:49;99623.21;;;22.72;44.64
62592;BME280;48659;41.622;2.276;2023-04-30T12:05:17;99622.37;;;22.61;47.21
62592;BME280;48659;41.622;2.276;2023-04-30T12:07:50;99618.83;;;22.26;46.62
62592;BME280;48659;41.622;2.276;2023-04-30T12:10:19;99625.74;;;21.55;48.43
62592;BME280;48659;41.622;2.276;2023-04-30T12:12:49;99627.61;;;20.09;51.29
62592;BME280;48659;41.622;2.276;2023-04-30T12:15:18;99624.22;;;19.90;51.96
62592;BME280;48659;41.622;2.276;2023-04-30T12:17:49;99626.57;;;19.55;53.10
62592;BME280;48659;41.622;2.276;2023-04-30T12:20:18;99623.86;;;20.85;51.92
62592;BME280;48659;41.622;2.276;2023-04-30T12:22:49;99620.09;;;19.94;53.69
62592;BME280;48659;41.622;2.276;2023-04-30T12:25:18;99615.05;;;19.88;55.49
62592;BME280;48659;41.622;2.276;2023-04-30T12:27:46;99620.04;;;18.40;58.42
62592;BME280;48659;41.622;2.276;2023-04-30T12:30:18;99620.90;;;19.00;58.54
62592;BME280;48659;41.622;2.276;2023-04-30T12:32:49;99625.17;;;19.98;57.66
62592;BME280;48659;41.622;2.276;2023-04-30T12:35:18;99628.15;;;18.32;61.08
62592;BME280;48659;41.622;2.276;2023-04-30T12:37:51;99625.33;;;17.79;62.24
62592;BME280;48659;41.622;2.276;2023-04-30T12:40:20;99618.01;;;19.86;59.79
62592;BME280;48659;41.622;2.276;2023-04-30T12:42:59;99618.71;;;17.98;65.13
62592;BME280;48659;41.622;2.276;2023-04-30T12:45:43;99616.58;;;19.03;62.25
62592;BME280;48659;41.622;2.276;2023-04-30T12:48:13;99621.53;;;17.79;63.47
62592;BME280;48659;41.622;2.276;2023-04-30T12:50:52;99621.61;;;18.61;63.37
62592;BME280;48659;41.622;2.276;2023-04-30T12:53:21;99632.62;;;17.53;65.71
62592;BME280;48659;41.622;2.276;2023-04-30T12:56:20;99635.32;;;18.19;64.01
62592;BME280;48659;41.622;2.276;2023-04-30T12:58:49;99650.72;;;17.31;65.81
62592;BME280;48659;41.622;2.276;2023-04-30T13:01:18;99651.53;;;16.96;70.18
62592;BME280;48659;41.622;2.276;2023-04-30T13:03:49;99651.75;;;16.44;71.54
62592;BME280;48659;41.622;2.276;2023-04-30T13:06:18;99653.66;;;17.16;71.45
62592;BME280;48659;41.622;2.276;2023-04-30T13:08:49;99652.50;;;16.22;73.21
62592;BME280;48659;41.622;2.276;2023-04-30T13:11:17;99660.03;;;18.70;68.30
62592;BME280;48659;41.622;2.276;2023-04-30T13:13:44;99670.13;;;19.32;65.18
62592;BME280;48659;41.622;2.276;2023-04-30T13:16:11;99674.77;;;19.43;62.56